sensor_id;sensor_type;location;lat;lon;timestamp;temperature;humidity
51500;DHT22;39101;53.478;6.158;2024-02-15T00:00:28;9.70;99.90
51500;DHT22;39101;53.478;6.158;2024-02-15T00:02:54;9.80;99.90
51500;DHT22;39101;53.478;6.158;2024-02-15T00:05:19;9.90;99.90
51500;DHT22;39101;53.478;6.158;2024-02-15T00:07:45;9.90;99.90
51500;DHT22;39101;53.478;6.158;2024-02-15T00:10:14;9.80;99.90
51500;DHT22;39101;53.478;6.158;2024-02-15T00:12:40;9.90;99.90
51500;DHT22;39101;53.478;6.158;2024-02-15T00:15:06;9.80;99.90
51500;DHT22;39101;53.478;6.158;2024-02-15T00:17:32;9.90;99.90
51500;DHT22;39101;53.478;6.158;2024-02-15T00:19:58;9.80;99.90
51500;DHT22;39101;53.478;6.158;2024-02-15T00:22:25;9.80;99.90
51500;DHT22;39101;53.478;6.158;2024-02-15T00:24:51;9.90;99.90
51500;DHT22;39101;53.478;6.158;2024-02-15T00:27:17;9.90;99.90
51500;DHT22;39101;53.478;6.158;2024-02-15T00:29:43;9.90;99.90
51500;DHT22;39101;53.478;6.158;2024-02-15T00:32:09;9.80;99.90
51500;DHT22;39101;53.478;6.158;2024-02-15T00:34:37;9.80;99.90
51500;DHT22;39101;53.478;6.158;2024-02-15T00:37:06;9.80;99.90
51500;DHT22;39101;53.478;6.158;2024-02-15T00:39:32;10.00;99.90
51500;DHT22;39101;53.478;6.158;2024-02-15T00:41:58;9.90;99.90
51500;DHT22;39101;53.478;6.158;2024-02-15T00:44:26;10.00;99.90
51500;DHT22;39101;53.478;6.158;2024-02-15T00:46:51;9.90;99.90
51500;DHT22;39101;53.478;6.158;2024-02-15T00:49:17;10.00;99.90
51500;DHT22;39101;53.478;6.158;2024-02-15T00:51:46;9.90;99.90
51500;DHT22;39101;53.478;6.158;2024-02-15T00:54:12;9.90;99.90
51500;DHT22;39101;53.478;6.158;2024-02-15T00:56:37;9.90;99.90
51500;DHT22;39101;53.478;6.158;2024-02-15T00:59:03;10.00;99.90
51500;DHT22;39101;53.478;6.158;2024-02-15T01:01:30;9.90;99.90
51500;DHT22;39101;53.478;6.158;2024-02-15T01:03:56;9.90;99.90
51500;DHT22;39101;53.478;6.158;2024-02-15T01:06:22;9.80;99.90
51500;DHT22;39101;53.478;6.158;2024-02-15T01:08:48;9.90;99.90
51500;DHT22;39101;53.478;6.158;2024-02-15T01:11:14;9.90;99.90
51500;DHT22;39101;53.478;6.158;2024-02-15T01:13:40;9.90;99.90
51500;DHT22;39101;53.478;6.158;2024-02-15T01:16:07;9.90;99.90
51500;DHT22;39101;53.478;6.158;2024-02-15T01:18:33;9.90;99.90
51500;DHT22;39101;53.478;6.158;2024-02-15T01:21:00;10.00;99.90
51500;DHT22;39101;53.478;6.158;2024-02-15T01:23:26;9.90;99.90
51500;DHT22;39101;53.478;6.158;2024-02-15T01:25:52;10.00;99.90
51500;DHT22;39101;53.478;6.158;2024-02-15T01:28:18;9.90;99.90
51500;DHT22;39101;53.478;6.158;2024-02-15T01:30:44;9.80;99.90
51500;DHT22;39101;53.478;6.158;2024-02-15T01:33:12;10.00;99.90
51500;DHT22;39101;53.478;6.158;2024-02-15T01:35:38;10.00;99.90
51500;DHT22;39101;53.478;6.158;2024-02-15T01:38:07;9.80;99.90
51500;DHT22;39101;53.478;6.158;2024-02-15T01:40:33;9.90;99.90
51500;DHT22;39101;53.478;6.158;2024-02-15T01:42:58;9.90;99.90
51500;DHT22;39101;53.478;6.158;2024-02-15T01:45:25;9.80;99.90
51500;DHT22;39101;53.478;6.158;2024-02-15T01:47:53;9.80;99.90
51500;DHT22;39101;53.478;6.158;2024-02-15T01:50:19;9.80;99.90
51500;DHT22;39101;53.478;6.158;2024-02-15T01:52:47;9.90;99.90
51500;DHT22;39101;53.478;6.158;2024-02-15T01:55:15;9.90;99.90
51500;DHT22;39101;53.478;6.158;2024-02-15T01:57:45;9.70;99.90
51500;DHT22;39101;53.478;6.158;2024-02-15T02:00:12;9.80;99.90
51500;DHT22;39101;53.478;6.158;2024-02-15T02:02:39;9.70;99.90
51500;DHT22;39101;53.478;6.158;2024-02-15T02:05:07;9.70;99.90
51500;DHT22;39101;53.478;6.158;2024-02-15T02:07:33;9.80;99.90
51500;DHT22;39101;53.478;6.158;2024-02-15T02:09:59;9.80;99.90
51500;DHT22;39101;53.478;6.158;2024-02-15T02:12:25;9.70;99.90
51500;DHT22;39101;53.478;6.158;2024-02-15T02:14:56;9.70;99.90
51500;DHT22;39101;53.478;6.158;2024-02-15T02:17:22;9.70;99.90
51500;DHT22;39101;53.478;6.158;2024-02-15T02:19:48;9.70;99.90
51500;DHT22;39101;53.478;6.158;2024-02-15T02:22:17;9.70;99.90
51500;DHT22;39101;53.478;6.158;2024-02-15T02:25:07;9.60;99.90
51500;DHT22;39101;53.478;6.158;2024-02-15T02:27:36;9.60;99.90
51500;DHT22;39101;53.478;6.158;2024-02-15T02:30:12;9.70;99.90
51500;DHT22;39101;53.478;6.158;2024-02-15T02:32:41;9.80;99.90
51500;DHT22;39101;53.478;6.158;2024-02-15T02:35:07;9.80;99.90
51500;DHT22;39101;53.478;6.158;2024-02-15T02:37:33;9.80;99.90
51500;DHT22;39101;53.478;6.158;2024-02-15T02:40:03;9.70;99.90
51500;DHT22;39101;53.478;6.158;2024-02-15T02:42:29;9.70;99.90
51500;DHT22;39101;53.478;6.158;2024-02-15T02:44:54;9.60;99.90
51500;DHT22;39101;53.478;6.158;2024-02-15T02:47:20;9.70;99.90
51500;DHT22;39101;53.478;6.158;2024-02-15T02:49:47;9.70;99.90
51500;DHT22;39101;53.478;6.158;2024-02-15T02:52:12;9.80;99.90
51500;DHT22;39101;53.478;6.158;2024-02-15T02:54:38;9.80;99.90
51500;DHT22;39101;53.478;6.158;2024-02-15T02:57:04;9.60;99.90
51500;DHT22;39101;53.478;6.158;2024-02-15T02:59:33;9.80;99.90
51500;DHT22;39101;53.478;6.158;2024-02-15T03:01:58;9.70;99.90
51500;DHT22;39101;53.478;6.158;2024-02-15T03:04:24;9.80;99.90
51500;DHT22;39101;53.478;6.158;2024-02-15T03:06:50;9.80;99.90
51500;DHT22;39101;53.478;6.158;2024-02-15T03:09:16;9.70;99.90
51500;DHT22;39101;53.478;6.158;2024-02-15T03:11:42;9.70;99.90
51500;DHT22;39101;53.478;6.158;2024-02-15T03:14:08;9.80;99.90
51500;DHT22;39101;53.478;6.158;2024-02-15T03:16:33;9.60;99.90
51500;DHT22;39101;53.478;6.158;2024-02-15T03:19:00;9.70;99.90
51500;DHT22;39101;53.478;6.158;2024-02-15T03:21:28;9.70;99.90
51500;DHT22;39101;53.478;6.158;2024-02-15T03:23:54;9.80;99.90
51500;DHT22;39101;53.478;6.158;2024-02-15T03:26:32;9.80;99.90
51500;DHT22;39101;53.478;6.158;2024-02-15T03:29:08;9.80;99.90
51500;DHT22;39101;53.478;6.158;2024-02-15T03:31:34;9.90;99.90
51500;DHT22;39101;53.478;6.158;2024-02-15T03:34:05;9.90;99.90
51500;DHT22;39101;53.478;6.158;2024-02-15T03:36:31;10.00;99.90
51500;DHT22;39101;53.478;6.158;2024-02-15T03:38:57;9.80;99.90
51500;DHT22;39101;53.478;6.158;2024-02-15T03:41:23;9.90;99.90
51500;DHT22;39101;53.478;6.158;2024-02-15T03:43:49;9.80;99.90
51500;DHT22;39101;53.478;6.158;2024-02-15T03:46:14;9.90;99.90
51500;DHT22;39101;53.478;6.158;2024-02-15T03:48:43;10.00;99.90
51500;DHT22;39101;53.478;6.158;2024-02-15T03:51:09;9.90;99.90
51500;DHT22;39101;53.478;6.158;2024-02-15T03:53:35;9.90;99.90
51500;DHT22;39101;53.478;6.158;2024-02-15T03:56:03;10.10;99.90
51500;DHT22;39101;53.478;6.158;2024-02-15T03:58:29;10.00;99.90
51500;DHT22;39101;53.478;6.158;2024-02-15T04:00:58;10.10;99.90
51500;DHT22;39101;53.478;6.158;2024-02-15T04:03:24;9.90;99.90
51500;DHT22;39101;53.478;6.158;2024-02-15T04:05:50;9.90;99.90
51500;DHT22;39101;53.478;6.158;2024-02-15T04:08:15;10.00;99.90
51500;DHT22;39101;53.478;6.158;2024-02-15T04:10:42;10.00;99.90
51500;DHT22;39101;53.478;6.158;2024-02-15T04:13:08;10.00;99.90
51500;DHT22;39101;53.478;6.158;2024-02-15T04:15:34;9.90;99.90
51500;DHT22;39101;53.478;6.158;2024-02-15T04:18:00;10.00;99.90
51500;DHT22;39101;53.478;6.158;2024-02-15T04:20:26;10.00;99.90
51500;DHT22;39101;53.478;6.158;2024-02-15T04:22:52;10.00;99.90
51500;DHT22;39101;53.478;6.158;2024-02-15T04:25:19;9.90;99.90
51500;DHT22;39101;53.478;6.158;2024-02-15T04:27:48;9.90;99.90
51500;DHT22;39101;53.478;6.158;2024-02-15T04:30:15;10.00;99.90
51500;DHT22;39101;53.478;6.158;2024-02-15T04:32:44;9.90;99.90
51500;DHT22;39101;53.478;6.158;2024-02-15T04:35:10;9.90;99.90
51500;DHT22;39101;53.478;6.158;2024-02-15T04:37:37;9.80;99.90
51500;DHT22;39101;53.478;6.158;2024-02-15T04:40:03;9.80;99.90
51500;DHT22;39101;53.478;6.158;2024-02-15T04:42:35;9.90;99.90
51500;DHT22;39101;53.478;6.158;2024-02-15T04:45:05;9.80;99.90
51500;DHT22;39101;53.478;6.158;2024-02-15T04:47:34;9.80;99.90
51500;DHT22;39101;53.478;6.158;2024-02-15T04:50:00;9.90;99.90
51500;DHT22;39101;53.478;6.158;2024-02-15T04:52:26;9.80;99.90
51500;DHT22;39101;53.478;6.158;2024-02-15T04:54:51;9.80;99.90
51500;DHT22;39101;53.478;6.158;2024-02-15T04:57:20;9.80;99.90
51500;DHT22;39101;53.478;6.158;2024-02-15T04:59:46;9.70;99.90
51500;DHT22;39101;53.478;6.158;2024-02-15T05:02:14;9.80;99.90
51500;DHT22;39101;53.478;6.158;2024-02-15T05:04:39;9.80;99.90
51500;DHT22;39101;53.478;6.158;2024-02-15T05:07:11;9.80;99.90
51500;DHT22;39101;53.478;6.158;2024-02-15T05:09:37;9.90;99.90
51500;DHT22;39101;53.478;6.158;2024-02-15T05:12:02;9.80;99.90
51500;DHT22;39101;53.478;6.158;2024-02-15T05:14:29;9.80;99.90
51500;DHT22;39101;53.478;6.158;2024-02-15T05:16:55;9.80;99.90
51500;DHT22;39101;53.478;6.158;2024-02-15T05:19:20;9.80;99.90
51500;DHT22;39101;53.478;6.158;2024-02-15T05:21:46;9.80;99.90
51500;DHT22;39101;53.478;6.158;2024-02-15T05:24:16;9.90;99.90
51500;DHT22;39101;53.478;6.158;2024-02-15T05:26:44;9.90;99.90
51500;DHT22;39101;53.478;6.158;2024-02-15T05:29:14;10.00;99.90
51500;DHT22;39101;53.478;6.158;2024-02-15T05:31:40;10.10;99.90
51500;DHT22;39101;53.478;6.158;2024-02-15T05:34:07;10.10;99.90
51500;DHT22;39101;53.478;6.158;2024-02-15T05:36:37;10.00;99.90
51500;DHT22;39101;53.478;6.158;2024-02-15T05:39:04;10.10;99.90
51500;DHT22;39101;53.478;6.158;2024-02-15T05:41:31;10.20;99.90
51500;DHT22;39101;53.478;6.158;2024-02-15T05:44:00;10.10;99.90
51500;DHT22;39101;53.478;6.158;2024-02-15T05:46:25;10.10;99.90
51500;DHT22;39101;53.478;6.158;2024-02-15T05:48:53;10.20;99.90
51500;DHT22;39101;53.478;6.158;2024-02-15T05:51:19;10.20;99.90
51500;DHT22;39101;53.478;6.158;2024-02-15T05:53:45;10.20;99.90
51500;DHT22;39101;53.478;6.158;2024-02-15T05:56:11;10.30;99.90
51500;DHT22;39101;53.478;6.158;2024-02-15T05:58:37;10.40;99.90
51500;DHT22;39101;53.478;6.158;2024-02-15T06:01:05;10.40;99.90
51500;DHT22;39101;53.478;6.158;2024-02-15T06:03:33;10.40;99.90
51500;DHT22;39101;53.478;6.158;2024-02-15T06:06:02;10.30;99.90
51500;DHT22;39101;53.478;6.158;2024-02-15T06:08:35;10.40;99.90
51500;DHT22;39101;53.478;6.158;2024-02-15T06:11:02;10.40;99.90
51500;DHT22;39101;53.478;6.158;2024-02-15T06:13:28;10.30;99.90
51500;DHT22;39101;53.478;6.158;2024-02-15T06:15:54;10.30;99.90
51500;DHT22;39101;53.478;6.158;2024-02-15T06:18:28;10.30;99.90
51500;DHT22;39101;53.478;6.158;2024-02-15T06:20:55;10.30;99.90
51500;DHT22;39101;53.478;6.158;2024-02-15T06:23:25;10.30;99.90
51500;DHT22;39101;53.478;6.158;2024-02-15T06:25:53;10.30;99.90
51500;DHT22;39101;53.478;6.158;2024-02-15T06:28:20;10.40;99.90
51500;DHT22;39101;53.478;6.158;2024-02-15T06:31:08;10.40;99.90
51500;DHT22;39101;53.478;6.158;2024-02-15T06:33:52;10.50;99.90
51500;DHT22;39101;53.478;6.158;2024-02-15T06:36:49;10.40;99.90
51500;DHT22;39101;53.478;6.158;2024-02-15T06:39:34;10.40;99.90
51500;DHT22;39101;53.478;6.158;2024-02-15T06:42:11;10.40;99.90
51500;DHT22;39101;53.478;6.158;2024-02-15T06:44:47;10.40;99.90
51500;DHT22;39101;53.478;6.158;2024-02-15T06:47:14;10.50;99.90
51500;DHT22;39101;53.478;6.158;2024-02-15T06:49:43;10.50;99.90
51500;DHT22;39101;53.478;6.158;2024-02-15T06:52:11;10.40;99.90
51500;DHT22;39101;53.478;6.158;2024-02-15T06:54:41;10.60;99.90
51500;DHT22;39101;53.478;6.158;2024-02-15T06:57:07;10.60;99.90
51500;DHT22;39101;53.478;6.158;2024-02-15T06:59:33;10.60;99.90
51500;DHT22;39101;53.478;6.158;2024-02-15T07:02:00;10.50;99.90
51500;DHT22;39101;53.478;6.158;2024-02-15T07:04:26;10.60;99.90
51500;DHT22;39101;53.478;6.158;2024-02-15T07:06:52;10.60;99.90
51500;DHT22;39101;53.478;6.158;2024-02-15T07:09:20;10.60;99.90
51500;DHT22;39101;53.478;6.158;2024-02-15T07:11:46;10.70;99.90
51500;DHT22;39101;53.478;6.158;2024-02-15T07:14:13;10.60;99.90
51500;DHT22;39101;53.478;6.158;2024-02-15T07:16:39;10.60;99.90
51500;DHT22;39101;53.478;6.158;2024-02-15T07:19:05;10.50;99.90
51500;DHT22;39101;53.478;6.158;2024-02-15T07:21:31;10.60;99.90
51500;DHT22;39101;53.478;6.158;2024-02-15T07:24:00;10.50;99.90
51500;DHT22;39101;53.478;6.158;2024-02-15T07:26:26;10.60;99.90
51500;DHT22;39101;53.478;6.158;2024-02-15T07:28:54;10.70;99.90
51500;DHT22;39101;53.478;6.158;2024-02-15T07:31:21;10.60;99.90
51500;DHT22;39101;53.478;6.158;2024-02-15T07:33:50;10.60;99.90
51500;DHT22;39101;53.478;6.158;2024-02-15T07:36:23;10.50;99.90
51500;DHT22;39101;53.478;6.158;2024-02-15T07:38:50;10.50;99.90
51500;DHT22;39101;53.478;6.158;2024-02-15T07:41:22;10.50;99.90
51500;DHT22;39101;53.478;6.158;2024-02-15T07:43:51;10.50;99.90
51500;DHT22;39101;53.478;6.158;2024-02-15T07:46:21;10.60;99.90
51500;DHT22;39101;53.478;6.158;2024-02-15T07:48:47;10.70;99.90
51500;DHT22;39101;53.478;6.158;2024-02-15T07:51:17;10.70;99.90
51500;DHT22;39101;53.478;6.158;2024-02-15T07:53:43;10.70;99.90
51500;DHT22;39101;53.478;6.158;2024-02-15T07:56:10;10.60;99.90
51500;DHT22;39101;53.478;6.158;2024-02-15T07:58:54;10.60;99.90
51500;DHT22;39101;53.478;6.158;2024-02-15T08:01:20;10.70;99.90
51500;DHT22;39101;53.478;6.158;2024-02-15T08:03:48;10.70;99.90
51500;DHT22;39101;53.478;6.158;2024-02-15T08:06:16;10.60;99.90
51500;DHT22;39101;53.478;6.158;2024-02-15T08:08:42;10.70;99.90
51500;DHT22;39101;53.478;6.158;2024-02-15T08:11:11;10.60;99.90
51500;DHT22;39101;53.478;6.158;2024-02-15T08:13:51;10.70;99.90
51500;DHT22;39101;53.478;6.158;2024-02-15T08:16:21;10.70;99.90
51500;DHT22;39101;53.478;6.158;2024-02-15T08:18:53;10.70;99.90
51500;DHT22;39101;53.478;6.158;2024-02-15T08:21:33;10.80;99.90
51500;DHT22;39101;53.478;6.158;2024-02-15T08:24:00;10.80;99.90
51500;DHT22;39101;53.478;6.158;2024-02-15T08:26:32;10.80;99.90
51500;DHT22;39101;53.478;6.158;2024-02-15T08:28:58;10.80;99.90
51500;DHT22;39101;53.478;6.158;2024-02-15T08:31:24;10.80;99.90
51500;DHT22;39101;53.478;6.158;2024-02-15T08:33:49;10.90;99.90
51500;DHT22;39101;53.478;6.158;2024-02-15T08:36:15;11.00;99.90
51500;DHT22;39101;53.478;6.158;2024-02-15T08:38:41;10.90;99.90
51500;DHT22;39101;53.478;6.158;2024-02-15T08:41:07;10.80;99.90
51500;DHT22;39101;53.478;6.158;2024-02-15T08:43:34;10.90;99.90
51500;DHT22;39101;53.478;6.158;2024-02-15T08:46:00;10.90;99.90
51500;DHT22;39101;53.478;6.158;2024-02-15T08:48:26;10.90;99.90
51500;DHT22;39101;53.478;6.158;2024-02-15T08:50:52;11.00;99.90
51500;DHT22;39101;53.478;6.158;2024-02-15T08:53:18;10.90;99.90
51500;DHT22;39101;53.478;6.158;2024-02-15T08:55:48;10.90;99.90
51500;DHT22;39101;53.478;6.158;2024-02-15T08:58:14;10.90;99.90
51500;DHT22;39101;53.478;6.158;2024-02-15T09:00:39;11.00;99.90
51500;DHT22;39101;53.478;6.158;2024-02-15T09:03:10;10.90;99.90
51500;DHT22;39101;53.478;6.158;2024-02-15T09:05:35;10.90;99.90
51500;DHT22;39101;53.478;6.158;2024-02-15T09:08:01;10.90;99.90
51500;DHT22;39101;53.478;6.158;2024-02-15T09:10:30;11.10;99.90
51500;DHT22;39101;53.478;6.158;2024-02-15T09:12:56;11.10;99.90
51500;DHT22;39101;53.478;6.158;2024-02-15T09:15:22;11.20;99.90
51500;DHT22;39101;53.478;6.158;2024-02-15T09:17:48;11.00;99.90
51500;DHT22;39101;53.478;6.158;2024-02-15T09:20:15;11.10;99.90
51500;DHT22;39101;53.478;6.158;2024-02-15T09:22:51;11.10;99.90
51500;DHT22;39101;53.478;6.158;2024-02-15T09:25:17;11.10;99.90
51500;DHT22;39101;53.478;6.158;2024-02-15T09:27:46;11.10;99.90
51500;DHT22;39101;53.478;6.158;2024-02-15T09:30:12;11.20;99.90
51500;DHT22;39101;53.478;6.158;2024-02-15T09:32:47;11.20;99.90
51500;DHT22;39101;53.478;6.158;2024-02-15T09:35:13;11.20;99.90
51500;DHT22;39101;53.478;6.158;2024-02-15T09:37:44;11.30;99.90
51500;DHT22;39101;53.478;6.158;2024-02-15T09:40:10;11.30;99.90
51500;DHT22;39101;53.478;6.158;2024-02-15T09:42:37;11.30;99.90
51500;DHT22;39101;53.478;6.158;2024-02-15T09:45:05;11.30;99.90
51500;DHT22;39101;53.478;6.158;2024-02-15T09:47:35;11.30;99.90
51500;DHT22;39101;53.478;6.158;2024-02-15T09:50:10;11.30;99.90
51500;DHT22;39101;53.478;6.158;2024-02-15T09:52:39;11.30;99.90
51500;DHT22;39101;53.478;6.158;2024-02-15T09:55:07;11.40;99.90
51500;DHT22;39101;53.478;6.158;2024-02-15T09:57:41;11.30;99.90
51500;DHT22;39101;53.478;6.158;2024-02-15T10:00:07;11.40;99.90
51500;DHT22;39101;53.478;6.158;2024-02-15T10:02:35;11.40;99.90
51500;DHT22;39101;53.478;6.158;2024-02-15T10:05:02;11.40;99.90
51500;DHT22;39101;53.478;6.158;2024-02-15T10:07:28;11.50;99.90
51500;DHT22;39101;53.478;6.158;2024-02-15T10:09:54;11.50;99.90
51500;DHT22;39101;53.478;6.158;2024-02-15T10:12:20;11.60;99.90
51500;DHT22;39101;53.478;6.158;2024-02-15T10:14:50;11.40;99.90
51500;DHT22;39101;53.478;6.158;2024-02-15T10:17:18;11.50;99.90
51500;DHT22;39101;53.478;6.158;2024-02-15T10:19:44;11.40;99.90
51500;DHT22;39101;53.478;6.158;2024-02-15T10:22:10;11.40;99.90
51500;DHT22;39101;53.478;6.158;2024-02-15T10:24:39;11.40;99.90
51500;DHT22;39101;53.478;6.158;2024-02-15T10:27:06;11.40;99.90
51500;DHT22;39101;53.478;6.158;2024-02-15T10:29:36;11.40;99.90
51500;DHT22;39101;53.478;6.158;2024-02-15T10:32:03;11.30;99.90
51500;DHT22;39101;53.478;6.158;2024-02-15T10:34:30;11.40;99.90
51500;DHT22;39101;53.478;6.158;2024-02-15T10:37:15;11.40;99.90
51500;DHT22;39101;53.478;6.158;2024-02-15T10:39:46;11.40;99.90
51500;DHT22;39101;53.478;6.158;2024-02-15T10:42:13;11.40;99.90
51500;DHT22;39101;53.478;6.158;2024-02-15T10:44:39;11.40;99.90
51500;DHT22;39101;53.478;6.158;2024-02-15T10:47:07;11.30;99.90
51500;DHT22;39101;53.478;6.158;2024-02-15T10:49:34;11.30;99.90
51500;DHT22;39101;53.478;6.158;2024-02-15T10:52:01;11.40;99.90
51500;DHT22;39101;53.478;6.158;2024-02-15T10:57:15;11.40;99.90
51500;DHT22;39101;53.478;6.158;2024-02-15T10:59:57;11.30;99.90
51500;DHT22;39101;53.478;6.158;2024-02-15T11:02:37;11.40;99.90
51500;DHT22;39101;53.478;6.158;2024-02-15T11:05:08;11.30;99.90
51500;DHT22;39101;53.478;6.158;2024-02-15T11:07:40;11.30;99.90
51500;DHT22;39101;53.478;6.158;2024-02-15T11:10:09;11.30;99.90
51500;DHT22;39101;53.478;6.158;2024-02-15T11:12:37;11.40;99.90
51500;DHT22;39101;53.478;6.158;2024-02-15T11:15:03;11.30;99.90
51500;DHT22;39101;53.478;6.158;2024-02-15T11:20:10;11.50;99.90
51500;DHT22;39101;53.478;6.158;2024-02-15T11:22:59;11.40;99.90
51500;DHT22;39101;53.478;6.158;2024-02-15T11:25:34;11.40;99.90
51500;DHT22;39101;53.478;6.158;2024-02-15T11:30:56;11.40;99.90
51500;DHT22;39101;53.478;6.158;2024-02-15T11:33:29;11.40;99.90
51500;DHT22;39101;53.478;6.158;2024-02-15T11:38:30;11.50;99.90
51500;DHT22;39101;53.478;6.158;2024-02-15T11:46:19;11.70;99.90
51500;DHT22;39101;53.478;6.158;2024-02-15T11:48:48;11.70;99.90
51500;DHT22;39101;53.478;6.158;2024-02-15T11:51:36;11.70;99.90
51500;DHT22;39101;53.478;6.158;2024-02-15T11:54:04;11.70;99.90
51500;DHT22;39101;53.478;6.158;2024-02-15T11:56:53;11.70;99.90
51500;DHT22;39101;53.478;6.158;2024-02-15T11:59:30;11.80;99.90
51500;DHT22;39101;53.478;6.158;2024-02-15T12:01:58;11.80;99.90
51500;DHT22;39101;53.478;6.158;2024-02-15T12:04:43;12.00;99.90
51500;DHT22;39101;53.478;6.158;2024-02-15T12:07:28;11.90;99.90
51500;DHT22;39101;53.478;6.158;2024-02-15T12:10:19;11.80;99.90
51500;DHT22;39101;53.478;6.158;2024-02-15T12:13:03;11.90;99.90
51500;DHT22;39101;53.478;6.158;2024-02-15T12:16:00;11.70;99.90
51500;DHT22;39101;53.478;6.158;2024-02-15T12:18:45;11.80;99.90
51500;DHT22;39101;53.478;6.158;2024-02-15T12:21:17;11.70;99.90
51500;DHT22;39101;53.478;6.158;2024-02-15T12:23:44;11.70;99.90
51500;DHT22;39101;53.478;6.158;2024-02-15T12:26:11;11.80;99.90
51500;DHT22;39101;53.478;6.158;2024-02-15T12:28:41;11.80;99.90
51500;DHT22;39101;53.478;6.158;2024-02-15T12:31:09;11.80;99.90
51500;DHT22;39101;53.478;6.158;2024-02-15T12:33:35;11.70;99.90
51500;DHT22;39101;53.478;6.158;2024-02-15T12:36:04;11.70;99.90
51500;DHT22;39101;53.478;6.158;2024-02-15T12:38:34;11.80;99.90
51500;DHT22;39101;53.478;6.158;2024-02-15T12:41:24;11.80;99.90
51500;DHT22;39101;53.478;6.158;2024-02-15T12:43:54;11.70;99.90
51500;DHT22;39101;53.478;6.158;2024-02-15T12:46:22;11.80;99.90
51500;DHT22;39101;53.478;6.158;2024-02-15T12:48:48;11.80;99.90
51500;DHT22;39101;53.478;6.158;2024-02-15T12:51:15;11.80;99.90
51500;DHT22;39101;53.478;6.158;2024-02-15T12:53:42;11.60;99.90
51500;DHT22;39101;53.478;6.158;2024-02-15T12:56:08;11.70;99.90
51500;DHT22;39101;53.478;6.158;2024-02-15T12:58:36;11.70;99.90
51500;DHT22;39101;53.478;6.158;2024-02-15T13:01:04;11.60;99.90
51500;DHT22;39101;53.478;6.158;2024-02-15T13:03:30;11.60;99.90
51500;DHT22;39101;53.478;6.158;2024-02-15T13:05:55;11.70;99.90
51500;DHT22;39101;53.478;6.158;2024-02-15T13:08:22;11.70;99.90
51500;DHT22;39101;53.478;6.158;2024-02-15T13:10:48;11.70;99.90
51500;DHT22;39101;53.478;6.158;2024-02-15T13:13:14;11.60;99.90
51500;DHT22;39101;53.478;6.158;2024-02-15T13:15:41;11.70;99.90
51500;DHT22;39101;53.478;6.158;2024-02-15T13:18:07;11.60;99.90
51500;DHT22;39101;53.478;6.158;2024-02-15T13:20:36;11.70;99.90
51500;DHT22;39101;53.478;6.158;2024-02-15T13:23:08;11.60;99.90
51500;DHT22;39101;53.478;6.158;2024-02-15T13:25:38;11.60;99.90
51500;DHT22;39101;53.478;6.158;2024-02-15T13:28:05;11.60;99.90
51500;DHT22;39101;53.478;6.158;2024-02-15T13:30:31;11.70;99.90
51500;DHT22;39101;53.478;6.158;2024-02-15T13:32:57;11.70;99.90
51500;DHT22;39101;53.478;6.158;2024-02-15T13:35:23;11.70;99.90
51500;DHT22;39101;53.478;6.158;2024-02-15T13:37:53;11.70;99.90
51500;DHT22;39101;53.478;6.158;2024-02-15T13:40:20;11.70;99.90
51500;DHT22;39101;53.478;6.158;2024-02-15T13:42:49;11.60;99.90
51500;DHT22;39101;53.478;6.158;2024-02-15T13:45:20;11.70;99.90
51500;DHT22;39101;53.478;6.158;2024-02-15T13:47:48;11.70;99.90
51500;DHT22;39101;53.478;6.158;2024-02-15T13:50:14;11.70;99.90
51500;DHT22;39101;53.478;6.158;2024-02-15T13:52:41;11.60;99.90
51500;DHT22;39101;53.478;6.158;2024-02-15T13:55:10;11.70;99.90
51500;DHT22;39101;53.478;6.158;2024-02-15T13:57:38;11.60;99.90
51500;DHT22;39101;53.478;6.158;2024-02-15T14:00:04;11.60;99.90
51500;DHT22;39101;53.478;6.158;2024-02-15T14:02:31;11.60;99.90
51500;DHT22;39101;53.478;6.158;2024-02-15T14:04:57;11.70;99.90
51500;DHT22;39101;53.478;6.158;2024-02-15T14:07:22;11.70;99.90
51500;DHT22;39101;53.478;6.158;2024-02-15T14:09:48;11.70;99.90
51500;DHT22;39101;53.478;6.158;2024-02-15T14:12:14;11.70;99.90
51500;DHT22;39101;53.478;6.158;2024-02-15T14:14:41;11.70;99.90
51500;DHT22;39101;53.478;6.158;2024-02-15T14:17:08;11.60;99.90
51500;DHT22;39101;53.478;6.158;2024-02-15T14:19:34;11.70;99.90
51500;DHT22;39101;53.478;6.158;2024-02-15T14:22:00;11.80;99.90
51500;DHT22;39101;53.478;6.158;2024-02-15T14:24:27;11.70;99.90
51500;DHT22;39101;53.478;6.158;2024-02-15T14:26:52;11.80;99.90
51500;DHT22;39101;53.478;6.158;2024-02-15T14:29:18;11.80;99.90
51500;DHT22;39101;53.478;6.158;2024-02-15T14:31:53;11.80;99.90
51500;DHT22;39101;53.478;6.158;2024-02-15T14:34:37;11.70;99.90
51500;DHT22;39101;53.478;6.158;2024-02-15T14:37:02;11.70;99.90
51500;DHT22;39101;53.478;6.158;2024-02-15T14:39:31;11.80;99.90
51500;DHT22;39101;53.478;6.158;2024-02-15T14:41:56;11.80;99.90
51500;DHT22;39101;53.478;6.158;2024-02-15T14:44:23;11.80;99.90
51500;DHT22;39101;53.478;6.158;2024-02-15T14:46:49;11.80;99.90
51500;DHT22;39101;53.478;6.158;2024-02-15T14:49:14;11.70;99.90
51500;DHT22;39101;53.478;6.158;2024-02-15T14:51:42;11.80;99.90
51500;DHT22;39101;53.478;6.158;2024-02-15T14:54:08;11.80;99.90
51500;DHT22;39101;53.478;6.158;2024-02-15T14:56:33;11.60;99.90
51500;DHT22;39101;53.478;6.158;2024-02-15T14:58:59;11.60;99.90
51500;DHT22;39101;53.478;6.158;2024-02-15T15:01:26;11.70;99.90
51500;DHT22;39101;53.478;6.158;2024-02-15T15:03:56;11.70;99.90
51500;DHT22;39101;53.478;6.158;2024-02-15T15:06:23;11.80;99.90
51500;DHT22;39101;53.478;6.158;2024-02-15T15:09:08;11.70;99.90
51500;DHT22;39101;53.478;6.158;2024-02-15T15:11:52;11.70;99.90
51500;DHT22;39101;53.478;6.158;2024-02-15T15:14:36;11.70;99.90
51500;DHT22;39101;53.478;6.158;2024-02-15T15:17:03;11.70;99.90
51500;DHT22;39101;53.478;6.158;2024-02-15T15:19:29;11.70;99.90
51500;DHT22;39101;53.478;6.158;2024-02-15T15:21:55;11.60;99.90
51500;DHT22;39101;53.478;6.158;2024-02-15T15:24:20;11.60;99.90
51500;DHT22;39101;53.478;6.158;2024-02-15T15:26:46;11.70;99.90
51500;DHT22;39101;53.478;6.158;2024-02-15T15:29:12;11.60;99.90
51500;DHT22;39101;53.478;6.158;2024-02-15T15:31:38;11.60;99.90
51500;DHT22;39101;53.478;6.158;2024-02-15T15:34:04;11.50;99.90
51500;DHT22;39101;53.478;6.158;2024-02-15T15:36:30;11.50;99.90
51500;DHT22;39101;53.478;6.158;2024-02-15T15:38:56;11.60;99.90
51500;DHT22;39101;53.478;6.158;2024-02-15T15:41:22;11.50;99.90
51500;DHT22;39101;53.478;6.158;2024-02-15T15:43:48;11.50;99.90
51500;DHT22;39101;53.478;6.158;2024-02-15T15:46:15;11.40;99.90
51500;DHT22;39101;53.478;6.158;2024-02-15T15:48:41;11.40;99.90
51500;DHT22;39101;53.478;6.158;2024-02-15T15:51:07;11.40;99.90
51500;DHT22;39101;53.478;6.158;2024-02-15T15:53:35;11.20;99.90
51500;DHT22;39101;53.478;6.158;2024-02-15T15:56:00;11.20;99.90
51500;DHT22;39101;53.478;6.158;2024-02-15T15:58:26;11.30;99.90